sensor_id;sensor_type;location;lat;lon;timestamp;P1;durP1;ratioP1;P2;durP2;ratioP2
60494;SDS011;46342;49.046;11.920;2024-01-30T00:01:14;10.15;;;7.05;;
60494;SDS011;46342;49.046;11.920;2024-01-30T00:03:40;12.43;;;6.35;;
60494;SDS011;46342;49.046;11.920;2024-01-30T00:06:06;11.65;;;6.95;;
60494;SDS011;46342;49.046;11.920;2024-01-30T00:08:32;11.02;;;6.15;;
60494;SDS011;46342;49.046;11.920;2024-01-30T00:10:58;12.90;;;6.32;;
60494;SDS011;46342;49.046;11.920;2024-01-30T00:13:23;10.63;;;6.30;;
60494;SDS011;46342;49.046;11.920;2024-01-30T00:15:49;10.02;;;6.78;;
60494;SDS011;46342;49.046;11.920;2024-01-30T00:18:14;11.23;;;6.90;;
60494;SDS011;46342;49.046;11.920;2024-01-30T00:20:40;14.07;;;7.07;;
60494;SDS011;46342;49.046;11.920;2024-01-30T00:23:06;11.73;;;6.57;;
60494;SDS011;46342;49.046;11.920;2024-01-30T00:25:31;9.88;;;6.32;;
60494;SDS011;46342;49.046;11.920;2024-01-30T00:27:58;11.27;;;6.93;;
60494;SDS011;46342;49.046;11.920;2024-01-30T00:30:24;11.77;;;6.82;;
60494;SDS011;46342;49.046;11.920;2024-01-30T00:32:49;10.63;;;6.80;;
60494;SDS011;46342;49.046;11.920;2024-01-30T00:35:15;13.05;;;7.63;;
60494;SDS011;46342;49.046;11.920;2024-01-30T00:37:41;11.90;;;7.10;;
60494;SDS011;46342;49.046;11.920;2024-01-30T00:40:06;14.32;;;7.25;;
60494;SDS011;46342;49.046;11.920;2024-01-30T00:42:32;11.63;;;7.25;;
60494;SDS011;46342;49.046;11.920;2024-01-30T00:44:58;10.98;;;7.10;;
60494;SDS011;46342;49.046;11.920;2024-01-30T00:47:24;9.82;;;6.40;;
60494;SDS011;46342;49.046;11.920;2024-01-30T00:49:49;9.95;;;6.30;;
60494;SDS011;46342;49.046;11.920;2024-01-30T00:52:15;10.43;;;6.20;;
60494;SDS011;46342;49.046;11.920;2024-01-30T00:54:40;8.88;;;6.47;;
60494;SDS011;46342;49.046;11.920;2024-01-30T00:57:06;9.50;;;5.90;;
60494;SDS011;46342;49.046;11.920;2024-01-30T00:59:32;9.50;;;5.82;;
60494;SDS011;46342;49.046;11.920;2024-01-30T01:01:58;11.70;;;6.43;;
60494;SDS011;46342;49.046;11.920;2024-01-30T01:04:24;10.23;;;7.15;;
60494;SDS011;46342;49.046;11.920;2024-01-30T01:06:50;10.80;;;7.00;;
60494;SDS011;46342;49.046;11.920;2024-01-30T01:09:16;11.50;;;7.30;;
60494;SDS011;46342;49.046;11.920;2024-01-30T01:11:42;11.23;;;6.63;;
60494;SDS011;46342;49.046;11.920;2024-01-30T01:14:07;11.48;;;6.38;;
60494;SDS011;46342;49.046;11.920;2024-01-30T01:16:33;11.68;;;6.97;;
60494;SDS011;46342;49.046;11.920;2024-01-30T01:18:59;13.55;;;6.63;;
60494;SDS011;46342;49.046;11.920;2024-01-30T01:21:25;10.52;;;6.15;;
60494;SDS011;46342;49.046;11.920;2024-01-30T01:23:50;10.38;;;6.22;;
60494;SDS011;46342;49.046;11.920;2024-01-30T01:26:16;9.73;;;6.68;;
60494;SDS011;46342;49.046;11.920;2024-01-30T01:28:42;10.68;;;5.68;;
60494;SDS011;46342;49.046;11.920;2024-01-30T01:31:07;9.50;;;5.78;;
60494;SDS011;46342;49.046;11.920;2024-01-30T01:33:33;8.48;;;5.10;;
60494;SDS011;46342;49.046;11.920;2024-01-30T01:35:59;8.35;;;5.47;;
60494;SDS011;46342;49.046;11.920;2024-01-30T01:38:27;10.02;;;5.47;;
60494;SDS011;46342;49.046;11.920;2024-01-30T01:40:53;11.07;;;5.68;;
60494;SDS011;46342;49.046;11.920;2024-01-30T01:43:18;9.75;;;5.85;;
60494;SDS011;46342;49.046;11.920;2024-01-30T01:45:44;9.25;;;5.63;;
60494;SDS011;46342;49.046;11.920;2024-01-30T01:48:10;6.25;;;3.78;;
60494;SDS011;46342;49.046;11.920;2024-01-30T01:50:37;8.10;;;5.10;;
60494;SDS011;46342;49.046;11.920;2024-01-30T01:53:03;11.15;;;5.50;;
60494;SDS011;46342;49.046;11.920;2024-01-30T01:55:31;7.63;;;5.38;;
60494;SDS011;46342;49.046;11.920;2024-01-30T01:57:58;10.85;;;6.35;;
60494;SDS011;46342;49.046;11.920;2024-01-30T02:00:24;10.05;;;6.25;;
60494;SDS011;46342;49.046;11.920;2024-01-30T02:02:49;10.27;;;6.22;;
60494;SDS011;46342;49.046;11.920;2024-01-30T02:05:15;8.13;;;5.38;;
60494;SDS011;46342;49.046;11.920;2024-01-30T02:07:41;12.38;;;6.68;;
60494;SDS011;46342;49.046;11.920;2024-01-30T02:10:08;11.57;;;6.35;;
60494;SDS011;46342;49.046;11.920;2024-01-30T02:12:37;8.75;;;6.22;;
60494;SDS011;46342;49.046;11.920;2024-01-30T02:15:03;9.30;;;5.47;;
60494;SDS011;46342;49.046;11.920;2024-01-30T02:17:30;8.70;;;6.00;;
60494;SDS011;46342;49.046;11.920;2024-01-30T02:19:56;9.15;;;6.43;;
60494;SDS011;46342;49.046;11.920;2024-01-30T02:22:21;9.38;;;6.40;;
60494;SDS011;46342;49.046;11.920;2024-01-30T02:24:48;12.18;;;6.28;;
60494;SDS011;46342;49.046;11.920;2024-01-30T02:27:14;10.18;;;6.07;;
60494;SDS011;46342;49.046;11.920;2024-01-30T02:29:39;12.45;;;6.97;;
60494;SDS011;46342;49.046;11.920;2024-01-30T02:32:05;14.73;;;7.53;;
60494;SDS011;46342;49.046;11.920;2024-01-30T02:34:31;11.02;;;6.32;;
60494;SDS011;46342;49.046;11.920;2024-01-30T02:36:57;13.82;;;7.68;;
60494;SDS011;46342;49.046;11.920;2024-01-30T02:39:22;11.07;;;6.68;;
60494;SDS011;46342;49.046;11.920;2024-01-30T02:41:48;11.77;;;6.75;;
60494;SDS011;46342;49.046;11.920;2024-01-30T02:44:13;8.80;;;5.85;;
60494;SDS011;46342;49.046;11.920;2024-01-30T02:46:39;11.57;;;7.03;;
60494;SDS011;46342;49.046;11.920;2024-01-30T02:49:04;13.07;;;7.60;;
60494;SDS011;46342;49.046;11.920;2024-01-30T02:51:30;12.20;;;7.88;;
60494;SDS011;46342;49.046;11.920;2024-01-30T02:53:55;11.93;;;6.88;;
60494;SDS011;46342;49.046;11.920;2024-01-30T02:56:21;10.55;;;7.15;;
60494;SDS011;46342;49.046;11.920;2024-01-30T02:58:47;11.38;;;5.60;;
60494;SDS011;46342;49.046;11.920;2024-01-30T03:01:12;12.35;;;6.45;;
60494;SDS011;46342;49.046;11.920;2024-01-30T03:03:38;10.10;;;5.78;;
60494;SDS011;46342;49.046;11.920;2024-01-30T03:06:05;8.18;;;4.95;;
60494;SDS011;46342;49.046;11.920;2024-01-30T03:08:32;10.10;;;5.75;;
60494;SDS011;46342;49.046;11.920;2024-01-30T03:10:57;10.55;;;5.82;;
60494;SDS011;46342;49.046;11.920;2024-01-30T03:13:23;10.40;;;5.18;;
60494;SDS011;46342;49.046;11.920;2024-01-30T03:15:50;6.80;;;3.83;;
60494;SDS011;46342;49.046;11.920;2024-01-30T03:18:15;10.18;;;5.65;;
60494;SDS011;46342;49.046;11.920;2024-01-30T03:20:41;9.00;;;5.13;;
60494;SDS011;46342;49.046;11.920;2024-01-30T03:23:06;8.63;;;5.70;;
60494;SDS011;46342;49.046;11.920;2024-01-30T03:25:32;9.18;;;6.43;;
60494;SDS011;46342;49.046;11.920;2024-01-30T03:27:57;10.70;;;6.90;;
60494;SDS011;46342;49.046;11.920;2024-01-30T03:30:23;8.48;;;5.35;;
60494;SDS011;46342;49.046;11.920;2024-01-30T03:32:48;9.18;;;5.63;;
60494;SDS011;46342;49.046;11.920;2024-01-30T03:35:15;9.88;;;6.28;;
60494;SDS011;46342;49.046;11.920;2024-01-30T03:37:40;10.05;;;6.18;;
60494;SDS011;46342;49.046;11.920;2024-01-30T03:40:06;8.52;;;5.60;;
60494;SDS011;46342;49.046;11.920;2024-01-30T03:42:32;9.70;;;5.93;;
60494;SDS011;46342;49.046;11.920;2024-01-30T03:44:58;8.52;;;6.13;;
60494;SDS011;46342;49.046;11.920;2024-01-30T03:47:23;12.45;;;6.60;;
60494;SDS011;46342;49.046;11.920;2024-01-30T03:49:49;9.80;;;6.18;;
60494;SDS011;46342;49.046;11.920;2024-01-30T03:52:14;10.48;;;7.10;;
60494;SDS011;46342;49.046;11.920;2024-01-30T03:54:40;11.80;;;7.22;;
60494;SDS011;46342;49.046;11.920;2024-01-30T03:57:06;11.50;;;7.05;;
60494;SDS011;46342;49.046;11.920;2024-01-30T03:59:31;15.27;;;6.93;;
60494;SDS011;46342;49.046;11.920;2024-01-30T04:01:57;13.13;;;7.90;;
60494;SDS011;46342;49.046;11.920;2024-01-30T04:04:22;14.45;;;7.80;;
60494;SDS011;46342;49.046;11.920;2024-01-30T04:06:48;14.35;;;8.93;;
60494;SDS011;46342;49.046;11.920;2024-01-30T04:09:14;16.02;;;8.45;;
60494;SDS011;46342;49.046;11.920;2024-01-30T04:11:39;14.80;;;8.52;;
60494;SDS011;46342;49.046;11.920;2024-01-30T04:14:05;14.70;;;9.00;;
60494;SDS011;46342;49.046;11.920;2024-01-30T04:16:31;13.73;;;8.43;;
60494;SDS011;46342;49.046;11.920;2024-01-30T04:18:56;15.63;;;8.23;;
60494;SDS011;46342;49.046;11.920;2024-01-30T04:21:22;14.10;;;8.43;;
60494;SDS011;46342;49.046;11.920;2024-01-30T04:23:48;14.52;;;8.50;;
60494;SDS011;46342;49.046;11.920;2024-01-30T04:26:14;14.90;;;8.88;;
60494;SDS011;46342;49.046;11.920;2024-01-30T04:28:44;14.50;;;8.55;;
60494;SDS011;46342;49.046;11.920;2024-01-30T04:31:10;18.30;;;10.07;;
60494;SDS011;46342;49.046;11.920;2024-01-30T04:33:36;14.98;;;9.35;;
60494;SDS011;46342;49.046;11.920;2024-01-30T04:36:02;19.73;;;10.15;;
60494;SDS011;46342;49.046;11.920;2024-01-30T04:38:28;14.10;;;8.77;;
60494;SDS011;46342;49.046;11.920;2024-01-30T04:40:54;16.27;;;9.15;;
60494;SDS011;46342;49.046;11.920;2024-01-30T04:43:20;16.02;;;9.48;;
60494;SDS011;46342;49.046;11.920;2024-01-30T04:45:45;13.73;;;8.65;;
60494;SDS011;46342;49.046;11.920;2024-01-30T04:48:11;14.65;;;7.97;;
60494;SDS011;46342;49.046;11.920;2024-01-30T04:50:36;16.85;;;10.02;;
60494;SDS011;46342;49.046;11.920;2024-01-30T04:53:02;15.57;;;8.77;;
60494;SDS011;46342;49.046;11.920;2024-01-30T04:55:27;16.23;;;9.23;;
60494;SDS011;46342;49.046;11.920;2024-01-30T04:57:53;18.30;;;9.98;;
60494;SDS011;46342;49.046;11.920;2024-01-30T05:00:19;14.55;;;8.55;;
60494;SDS011;46342;49.046;11.920;2024-01-30T05:02:44;16.55;;;8.80;;
60494;SDS011;46342;49.046;11.920;2024-01-30T05:05:10;14.45;;;9.45;;
60494;SDS011;46342;49.046;11.920;2024-01-30T05:07:36;15.95;;;10.07;;
60494;SDS011;46342;49.046;11.920;2024-01-30T05:10:02;17.45;;;10.18;;
60494;SDS011;46342;49.046;11.920;2024-01-30T05:12:28;11.70;;;6.47;;
60494;SDS011;46342;49.046;11.920;2024-01-30T05:14:54;12.20;;;6.28;;
60494;SDS011;46342;49.046;11.920;2024-01-30T05:17:19;11.40;;;6.70;;
60494;SDS011;46342;49.046;11.920;2024-01-30T05:19:45;13.77;;;8.55;;
60494;SDS011;46342;49.046;11.920;2024-01-30T05:22:10;12.68;;;7.63;;
60494;SDS011;46342;49.046;11.920;2024-01-30T05:24:40;13.18;;;8.70;;
60494;SDS011;46342;49.046;11.920;2024-01-30T05:27:08;16.92;;;8.88;;
60494;SDS011;46342;49.046;11.920;2024-01-30T05:29:34;19.23;;;11.50;;
60494;SDS011;46342;49.046;11.920;2024-01-30T05:31:59;15.00;;;8.75;;
60494;SDS011;46342;49.046;11.920;2024-01-30T05:34:25;14.20;;;9.88;;
60494;SDS011;46342;49.046;11.920;2024-01-30T05:36:50;16.33;;;9.25;;
60494;SDS011;46342;49.046;11.920;2024-01-30T05:39:16;15.52;;;8.15;;
60494;SDS011;46342;49.046;11.920;2024-01-30T05:41:41;11.30;;;7.03;;
60494;SDS011;46342;49.046;11.920;2024-01-30T05:44:07;10.98;;;6.25;;
60494;SDS011;46342;49.046;11.920;2024-01-30T05:46:33;11.00;;;6.75;;
60494;SDS011;46342;49.046;11.920;2024-01-30T05:49:00;8.48;;;5.22;;
60494;SDS011;46342;49.046;11.920;2024-01-30T05:51:25;7.07;;;5.30;;
60494;SDS011;46342;49.046;11.920;2024-01-30T05:53:51;9.68;;;5.88;;
60494;SDS011;46342;49.046;11.920;2024-01-30T05:56:16;10.20;;;5.93;;
60494;SDS011;46342;49.046;11.920;2024-01-30T05:58:42;12.07;;;6.82;;
60494;SDS011;46342;49.046;11.920;2024-01-30T06:01:08;12.18;;;7.40;;
60494;SDS011;46342;49.046;11.920;2024-01-30T06:03:34;9.82;;;6.22;;
60494;SDS011;46342;49.046;11.920;2024-01-30T06:06:00;11.18;;;7.20;;
60494;SDS011;46342;49.046;11.920;2024-01-30T06:08:26;10.88;;;6.95;;
60494;SDS011;46342;49.046;11.920;2024-01-30T06:10:51;13.50;;;7.43;;
60494;SDS011;46342;49.046;11.920;2024-01-30T06:13:17;11.65;;;7.20;;
60494;SDS011;46342;49.046;11.920;2024-01-30T06:15:43;13.88;;;7.32;;
60494;SDS011;46342;49.046;11.920;2024-01-30T06:18:08;12.90;;;8.00;;
60494;SDS011;46342;49.046;11.920;2024-01-30T06:20:34;13.70;;;7.82;;
60494;SDS011;46342;49.046;11.920;2024-01-30T06:22:59;15.80;;;8.75;;
60494;SDS011;46342;49.046;11.920;2024-01-30T06:25:25;15.95;;;9.13;;
60494;SDS011;46342;49.046;11.920;2024-01-30T06:27:51;13.05;;;7.53;;
60494;SDS011;46342;49.046;11.920;2024-01-30T06:30:17;15.38;;;9.43;;
60494;SDS011;46342;49.046;11.920;2024-01-30T06:32:42;12.90;;;8.82;;
60494;SDS011;46342;49.046;11.920;2024-01-30T06:35:08;16.92;;;9.25;;
60494;SDS011;46342;49.046;11.920;2024-01-30T06:37:35;16.55;;;9.27;;
60494;SDS011;46342;49.046;11.920;2024-01-30T06:40:01;16.90;;;9.93;;
60494;SDS011;46342;49.046;11.920;2024-01-30T06:42:26;17.05;;;10.68;;
60494;SDS011;46342;49.046;11.920;2024-01-30T06:44:52;16.35;;;9.60;;
60494;SDS011;46342;49.046;11.920;2024-01-30T06:47:17;15.02;;;10.25;;
60494;SDS011;46342;49.046;11.920;2024-01-30T06:49:43;18.30;;;9.65;;
60494;SDS011;46342;49.046;11.920;2024-01-30T06:52:10;14.88;;;7.97;;
60494;SDS011;46342;49.046;11.920;2024-01-30T06:54:36;15.38;;;8.90;;
60494;SDS011;46342;49.046;11.920;2024-01-30T06:57:02;12.65;;;9.00;;
60494;SDS011;46342;49.046;11.920;2024-01-30T06:59:28;17.20;;;9.43;;
60494;SDS011;46342;49.046;11.920;2024-01-30T07:01:53;19.25;;;10.48;;
60494;SDS011;46342;49.046;11.920;2024-01-30T07:04:19;16.80;;;9.48;;
60494;SDS011;46342;49.046;11.920;2024-01-30T07:06:44;15.77;;;8.95;;
60494;SDS011;46342;49.046;11.920;2024-01-30T07:09:10;18.00;;;10.20;;
60494;SDS011;46342;49.046;11.920;2024-01-30T07:11:37;17.40;;;9.65;;
60494;SDS011;46342;49.046;11.920;2024-01-30T07:14:02;13.40;;;8.75;;
60494;SDS011;46342;49.046;11.920;2024-01-30T07:18:56;8.15;;;5.63;;
60494;SDS011;46342;49.046;11.920;2024-01-30T07:21:22;8.38;;;5.65;;
60494;SDS011;46342;49.046;11.920;2024-01-30T07:23:52;9.75;;;6.22;;
60494;SDS011;46342;49.046;11.920;2024-01-30T07:26:21;16.77;;;10.13;;
60494;SDS011;46342;49.046;11.920;2024-01-30T07:28:47;14.43;;;9.18;;
60494;SDS011;46342;49.046;11.920;2024-01-30T07:31:12;17.35;;;8.93;;
60494;SDS011;46342;49.046;11.920;2024-01-30T07:33:38;17.25;;;9.88;;
60494;SDS011;46342;49.046;11.920;2024-01-30T07:36:03;16.77;;;9.48;;
60494;SDS011;46342;49.046;11.920;2024-01-30T07:38:32;16.40;;;9.80;;
60494;SDS011;46342;49.046;11.920;2024-01-30T07:40:58;15.02;;;9.23;;
60494;SDS011;46342;49.046;11.920;2024-01-30T07:43:23;14.07;;;8.43;;
60494;SDS011;46342;49.046;11.920;2024-01-30T07:45:49;15.38;;;8.85;;
60494;SDS011;46342;49.046;11.920;2024-01-30T07:48:15;18.30;;;10.35;;
60494;SDS011;46342;49.046;11.920;2024-01-30T07:50:40;15.75;;;8.25;;
60494;SDS011;46342;49.046;11.920;2024-01-30T07:53:06;15.60;;;9.07;;
60494;SDS011;46342;49.046;11.920;2024-01-30T07:55:32;19.40;;;10.88;;
60494;SDS011;46342;49.046;11.920;2024-01-30T07:57:57;14.77;;;9.35;;
60494;SDS011;46342;49.046;11.920;2024-01-30T08:00:26;15.60;;;9.77;;
60494;SDS011;46342;49.046;11.920;2024-01-30T08:02:54;16.98;;;9.48;;
60494;SDS011;46342;49.046;11.920;2024-01-30T08:05:20;16.95;;;9.15;;
60494;SDS011;46342;49.046;11.920;2024-01-30T08:07:47;18.85;;;10.27;;
60494;SDS011;46342;49.046;11.920;2024-01-30T08:10:14;19.90;;;10.93;;
60494;SDS011;46342;49.046;11.920;2024-01-30T08:12:40;18.58;;;10.80;;
60494;SDS011;46342;49.046;11.920;2024-01-30T08:15:06;22.40;;;11.68;;
60494;SDS011;46342;49.046;11.920;2024-01-30T08:17:32;11.93;;;7.50;;
60494;SDS011;46342;49.046;11.920;2024-01-30T08:19:58;13.68;;;7.55;;
60494;SDS011;46342;49.046;11.920;2024-01-30T08:22:23;18.45;;;10.38;;
60494;SDS011;46342;49.046;11.920;2024-01-30T08:24:49;17.50;;;10.15;;
60494;SDS011;46342;49.046;11.920;2024-01-30T08:27:15;18.15;;;10.60;;
60494;SDS011;46342;49.046;11.920;2024-01-30T08:29:40;11.80;;;8.38;;
60494;SDS011;46342;49.046;11.920;2024-01-30T08:32:06;18.50;;;10.13;;
60494;SDS011;46342;49.046;11.920;2024-01-30T08:34:32;13.18;;;8.75;;
60494;SDS011;46342;49.046;11.920;2024-01-30T08:36:57;16.73;;;9.85;;
60494;SDS011;46342;49.046;11.920;2024-01-30T08:39:23;15.65;;;9.65;;
60494;SDS011;46342;49.046;11.920;2024-01-30T08:41:49;18.17;;;10.35;;
60494;SDS011;46342;49.046;11.920;2024-01-30T08:44:15;15.48;;;8.73;;
60494;SDS011;46342;49.046;11.920;2024-01-30T08:46:41;17.27;;;10.50;;
60494;SDS011;46342;49.046;11.920;2024-01-30T08:49:07;18.13;;;10.43;;
60494;SDS011;46342;49.046;11.920;2024-01-30T08:51:33;16.58;;;10.32;;
60494;SDS011;46342;49.046;11.920;2024-01-30T08:53:58;15.57;;;9.25;;
60494;SDS011;46342;49.046;11.920;2024-01-30T08:56:25;17.75;;;10.32;;
60494;SDS011;46342;49.046;11.920;2024-01-30T08:58:50;21.35;;;11.15;;
60494;SDS011;46342;49.046;11.920;2024-01-30T09:01:16;19.38;;;10.05;;
60494;SDS011;46342;49.046;11.920;2024-01-30T09:03:41;20.02;;;11.07;;
60494;SDS011;46342;49.046;11.920;2024-01-30T09:06:10;16.30;;;10.82;;
60494;SDS011;46342;49.046;11.920;2024-01-30T09:08:36;18.73;;;10.70;;
60494;SDS011;46342;49.046;11.920;2024-01-30T09:11:02;18.65;;;10.32;;
60494;SDS011;46342;49.046;11.920;2024-01-30T09:13:34;16.48;;;10.27;;
60494;SDS011;46342;49.046;11.920;2024-01-30T09:16:00;21.13;;;10.30;;
60494;SDS011;46342;49.046;11.920;2024-01-30T09:18:26;15.30;;;9.43;;
60494;SDS011;46342;49.046;11.920;2024-01-30T09:20:51;18.45;;;10.23;;
60494;SDS011;46342;49.046;11.920;2024-01-30T09:23:17;19.48;;;11.35;;
60494;SDS011;46342;49.046;11.920;2024-01-30T09:25:44;18.60;;;10.48;;
60494;SDS011;46342;49.046;11.920;2024-01-30T09:28:10;16.15;;;8.65;;
60494;SDS011;46342;49.046;11.920;2024-01-30T09:30:35;18.42;;;10.40;;
60494;SDS011;46342;49.046;11.920;2024-01-30T09:33:01;17.17;;;9.77;;
60494;SDS011;46342;49.046;11.920;2024-01-30T09:35:26;18.50;;;9.55;;
60494;SDS011;46342;49.046;11.920;2024-01-30T09:37:52;20.30;;;10.80;;
60494;SDS011;46342;49.046;11.920;2024-01-30T09:40:18;15.77;;;9.32;;
60494;SDS011;46342;49.046;11.920;2024-01-30T09:42:46;17.75;;;11.38;;
60494;SDS011;46342;49.046;11.920;2024-01-30T09:45:14;18.55;;;10.43;;
60494;SDS011;46342;49.046;11.920;2024-01-30T09:47:41;14.98;;;9.45;;
60494;SDS011;46342;49.046;11.920;2024-01-30T09:50:08;15.80;;;9.52;;
60494;SDS011;46342;49.046;11.920;2024-01-30T09:52:34;17.95;;;10.57;;
60494;SDS011;46342;49.046;11.920;2024-01-30T09:55:00;17.27;;;9.70;;
60494;SDS011;46342;49.046;11.920;2024-01-30T09:57:26;22.67;;;11.63;;
60494;SDS011;46342;49.046;11.920;2024-01-30T09:59:52;18.27;;;11.18;;
60494;SDS011;46342;49.046;11.920;2024-01-30T10:02:19;17.23;;;9.32;;
60494;SDS011;46342;49.046;11.920;2024-01-30T10:04:47;18.38;;;10.90;;
60494;SDS011;46342;49.046;11.920;2024-01-30T10:07:13;19.63;;;10.60;;
60494;SDS011;46342;49.046;11.920;2024-01-30T10:09:39;26.83;;;11.60;;
60494;SDS011;46342;49.046;11.920;2024-01-30T10:12:05;20.17;;;11.07;;
60494;SDS011;46342;49.046;11.920;2024-01-30T10:14:31;18.80;;;11.18;;
60494;SDS011;46342;49.046;11.920;2024-01-30T10:16:57;28.15;;;10.70;;
60494;SDS011;46342;49.046;11.920;2024-01-30T10:19:23;15.88;;;9.38;;
60494;SDS011;46342;49.046;11.920;2024-01-30T10:21:48;17.33;;;10.70;;
60494;SDS011;46342;49.046;11.920;2024-01-30T10:24:14;19.15;;;11.10;;
60494;SDS011;46342;49.046;11.920;2024-01-30T10:26:40;22.00;;;12.02;;
60494;SDS011;46342;49.046;11.920;2024-01-30T10:29:08;19.40;;;10.45;;
60494;SDS011;46342;49.046;11.920;2024-01-30T10:31:34;18.65;;;11.30;;
60494;SDS011;46342;49.046;11.920;2024-01-30T10:33:59;14.02;;;9.10;;
60494;SDS011;46342;49.046;11.920;2024-01-30T10:36:27;16.38;;;10.15;;
60494;SDS011;46342;49.046;11.920;2024-01-30T10:38:55;20.67;;;10.73;;
60494;SDS011;46342;49.046;11.920;2024-01-30T10:41:26;19.35;;;9.98;;
60494;SDS011;46342;49.046;11.920;2024-01-30T10:43:58;20.13;;;11.48;;
60494;SDS011;46342;49.046;11.920;2024-01-30T10:46:29;18.70;;;10.82;;
60494;SDS011;46342;49.046;11.920;2024-01-30T10:48:57;17.42;;;10.85;;
60494;SDS011;46342;49.046;11.920;2024-01-30T10:51:25;20.42;;;10.32;;
60494;SDS011;46342;49.046;11.920;2024-01-30T10:53:52;18.58;;;10.88;;
60494;SDS011;46342;49.046;11.920;2024-01-30T10:56:20;17.13;;;10.23;;
60494;SDS011;46342;49.046;11.920;2024-01-30T10:58:47;17.33;;;10.25;;
60494;SDS011;46342;49.046;11.920;2024-01-30T11:01:20;16.88;;;10.07;;
60494;SDS011;46342;49.046;11.920;2024-01-30T11:03:53;17.83;;;10.35;;
60494;SDS011;46342;49.046;11.920;2024-01-30T11:06:23;22.08;;;11.00;;
60494;SDS011;46342;49.046;11.920;2024-01-30T11:09:05;19.58;;;10.68;;
60494;SDS011;46342;49.046;11.920;2024-01-30T11:11:51;16.90;;;10.32;;
60494;SDS011;46342;49.046;11.920;2024-01-30T11:14:24;15.88;;;9.93;;
60494;SDS011;46342;49.046;11.920;2024-01-30T11:16:57;19.65;;;10.82;;
60494;SDS011;46342;49.046;11.920;2024-01-30T11:19:27;19.88;;;11.38;;
60494;SDS011;46342;49.046;11.920;2024-01-30T11:21:55;20.35;;;10.88;;
60494;SDS011;46342;49.046;11.920;2024-01-30T11:24:22;15.65;;;9.88;;
60494;SDS011;46342;49.046;11.920;2024-01-30T11:26:49;17.25;;;9.95;;
60494;SDS011;46342;49.046;11.920;2024-01-30T11:29:18;17.77;;;10.60;;
60494;SDS011;46342;49.046;11.920;2024-01-30T11:31:56;19.90;;;11.20;;
60494;SDS011;46342;49.046;11.920;2024-01-30T11:34:23;19.75;;;10.70;;
60494;SDS011;46342;49.046;11.920;2024-01-30T11:36:59;16.98;;;9.75;;
60494;SDS011;46342;49.046;11.920;2024-01-30T11:39:31;18.95;;;10.32;;
60494;SDS011;46342;49.046;11.920;2024-01-30T11:41:57;17.48;;;9.88;;
60494;SDS011;46342;49.046;11.920;2024-01-30T11:44:24;20.55;;;11.13;;
60494;SDS011;46342;49.046;11.920;2024-01-30T11:46:51;16.55;;;10.98;;
60494;SDS011;46342;49.046;11.920;2024-01-30T11:49:17;16.15;;;9.77;;
60494;SDS011;46342;49.046;11.920;2024-01-30T11:51:43;17.98;;;10.18;;
60494;SDS011;46342;49.046;11.920;2024-01-30T11:54:10;18.35;;;11.35;;
60494;SDS011;46342;49.046;11.920;2024-01-30T11:56:36;18.35;;;10.57;;
60494;SDS011;46342;49.046;11.920;2024-01-30T11:59:03;18.65;;;11.18;;
60494;SDS011;46342;49.046;11.920;2024-01-30T12:01:29;18.55;;;10.63;;
60494;SDS011;46342;49.046;11.920;2024-01-30T12:03:56;21.27;;;12.45;;
60494;SDS011;46342;49.046;11.920;2024-01-30T12:06:23;24.50;;;13.63;;
60494;SDS011;46342;49.046;11.920;2024-01-30T12:09:01;20.60;;;12.18;;
60494;SDS011;46342;49.046;11.920;2024-01-30T12:11:33;20.17;;;11.52;;
60494;SDS011;46342;49.046;11.920;2024-01-30T12:14:09;23.25;;;11.73;;
60494;SDS011;46342;49.046;11.920;2024-01-30T12:16:35;21.00;;;12.48;;
60494;SDS011;46342;49.046;11.920;2024-01-30T12:19:00;22.63;;;12.90;;
60494;SDS011;46342;49.046;11.920;2024-01-30T12:21:27;21.10;;;12.05;;
60494;SDS011;46342;49.046;11.920;2024-01-30T12:23:53;22.38;;;12.68;;
60494;SDS011;46342;49.046;11.920;2024-01-30T12:26:19;26.52;;;13.60;;
60494;SDS011;46342;49.046;11.920;2024-01-30T12:28:48;22.92;;;13.52;;
60494;SDS011;46342;49.046;11.920;2024-01-30T12:31:15;22.48;;;12.65;;
60494;SDS011;46342;49.046;11.920;2024-01-30T12:33:40;19.52;;;12.20;;
60494;SDS011;46342;49.046;11.920;2024-01-30T12:36:06;24.75;;;13.25;;
60494;SDS011;46342;49.046;11.920;2024-01-30T12:38:32;22.63;;;13.27;;
60494;SDS011;46342;49.046;11.920;2024-01-30T12:40:58;25.05;;;13.48;;
60494;SDS011;46342;49.046;11.920;2024-01-30T12:43:23;23.60;;;13.32;;
60494;SDS011;46342;49.046;11.920;2024-01-30T12:45:50;24.40;;;13.35;;
60494;SDS011;46342;49.046;11.920;2024-01-30T12:48:17;26.00;;;13.38;;
60494;SDS011;46342;49.046;11.920;2024-01-30T12:50:42;31.35;;;14.07;;
60494;SDS011;46342;49.046;11.920;2024-01-30T12:53:08;27.90;;;14.27;;
60494;SDS011;46342;49.046;11.920;2024-01-30T12:55:34;27.58;;;14.10;;
60494;SDS011;46342;49.046;11.920;2024-01-30T12:58:00;24.90;;;14.63;;
60494;SDS011;46342;49.046;11.920;2024-01-30T13:00:26;27.30;;;14.77;;
60494;SDS011;46342;49.046;11.920;2024-01-30T13:02:52;25.25;;;13.52;;
60494;SDS011;46342;49.046;11.920;2024-01-30T13:05:17;28.23;;;15.43;;
60494;SDS011;46342;49.046;11.920;2024-01-30T13:07:43;30.70;;;16.00;;
60494;SDS011;46342;49.046;11.920;2024-01-30T13:10:09;28.92;;;15.40;;
60494;SDS011;46342;49.046;11.920;2024-01-30T13:12:34;32.20;;;15.07;;
60494;SDS011;46342;49.046;11.920;2024-01-30T13:15:00;29.50;;;15.73;;
60494;SDS011;46342;49.046;11.920;2024-01-30T13:17:26;32.40;;;16.17;;
60494;SDS011;46342;49.046;11.920;2024-01-30T13:19:52;26.08;;;15.15;;
60494;SDS011;46342;49.046;11.920;2024-01-30T13:22:19;27.08;;;14.80;;
60494;SDS011;46342;49.046;11.920;2024-01-30T13:24:46;28.23;;;14.23;;
60494;SDS011;46342;49.046;11.920;2024-01-30T13:27:12;25.25;;;13.30;;
60494;SDS011;46342;49.046;11.920;2024-01-30T13:29:38;25.98;;;14.50;;
60494;SDS011;46342;49.046;11.920;2024-01-30T13:32:03;26.48;;;13.57;;
60494;SDS011;46342;49.046;11.920;2024-01-30T13:34:29;33.95;;;17.73;;
60494;SDS011;46342;49.046;11.920;2024-01-30T13:36:55;29.17;;;15.13;;
60494;SDS011;46342;49.046;11.920;2024-01-30T13:39:21;38.97;;;22.02;;
60494;SDS011;46342;49.046;11.920;2024-01-30T13:41:47;28.23;;;15.75;;
60494;SDS011;46342;49.046;11.920;2024-01-30T13:44:13;27.65;;;15.45;;
60494;SDS011;46342;49.046;11.920;2024-01-30T13:46:41;27.08;;;16.10;;
60494;SDS011;46342;49.046;11.920;2024-01-30T13:49:06;26.08;;;14.32;;
60494;SDS011;46342;49.046;11.920;2024-01-30T13:51:32;28.67;;;14.90;;
60494;SDS011;46342;49.046;11.920;2024-01-30T13:53:57;26.38;;;13.65;;
60494;SDS011;46342;49.046;11.920;2024-01-30T13:56:23;27.02;;;14.23;;
60494;SDS011;46342;49.046;11.920;2024-01-30T13:58:49;21.17;;;12.75;;
60494;SDS011;46342;49.046;11.920;2024-01-30T14:01:15;23.40;;;13.10;;
60494;SDS011;46342;49.046;11.920;2024-01-30T14:03:41;28.92;;;14.43;;
60494;SDS011;46342;49.046;11.920;2024-01-30T14:06:07;25.77;;;13.70;;
60494;SDS011;46342;49.046;11.920;2024-01-30T14:08:33;28.58;;;13.23;;
60494;SDS011;46342;49.046;11.920;2024-01-30T14:10:58;24.90;;;13.82;;
60494;SDS011;46342;49.046;11.920;2024-01-30T14:13:24;28.00;;;13.90;;
60494;SDS011;46342;49.046;11.920;2024-01-30T14:15:50;28.83;;;13.35;;